createdAt,value
2023-05-01T00:01:58.897Z,4.73
2023-05-01T00:04:26.378Z,4.68
2023-05-01T00:06:53.458Z,4.70
2023-05-01T00:09:20.260Z,4.71
2023-05-01T00:11:47.057Z,4.67
2023-05-01T00:14:13.843Z,4.57
2023-05-01T00:16:40.681Z,4.59
2023-05-01T00:19:08.273Z,4.52
2023-05-01T00:21:35.126Z,4.45
2023-05-01T00:24:01.818Z,4.46
2023-05-01T00:26:31.325Z,4.46
2023-05-01T00:28:58.440Z,4.47
2023-05-01T00:31:25.982Z,4.44
2023-05-01T00:33:53.205Z,4.45
2023-05-01T00:36:20.660Z,4.34
2023-05-01T00:38:47.355Z,4.28
2023-05-01T00:41:14.114Z,4.32
2023-05-01T00:43:41.105Z,4.28
2023-05-01T00:46:08.575Z,4.35
2023-05-01T00:48:36.031Z,4.36
2023-05-01T00:51:06.116Z,4.27
2023-05-01T00:53:34.195Z,4.15
2023-05-01T00:56:01.239Z,4.12
2023-05-01T00:58:29.220Z,4.12
2023-05-01T01:00:56.822Z,4.14
2023-05-01T01:03:23.601Z,4.09
2023-05-01T01:05:55.831Z,4.08
2023-05-01T01:08:33.572Z,4.01
2023-05-01T01:11:43.030Z,3.93
2023-05-01T01:14:19.900Z,3.93
2023-05-01T01:17:19.118Z,3.91
2023-05-01T01:20:14.987Z,3.88
2023-05-01T01:22:45.966Z,3.94
2023-05-01T01:25:47.900Z,3.90
2023-05-01T01:28:39.986Z,3.85
2023-05-01T01:31:14.235Z,3.74
2023-05-01T01:34:04.258Z,3.71
2023-05-01T01:36:56.275Z,3.63
2023-05-01T01:39:42.361Z,3.61
2023-05-01T01:42:14.863Z,3.57
2023-05-01T01:44:47.844Z,3.45
2023-05-01T01:47:16.610Z,3.38
2023-05-01T01:49:48.640Z,3.40
2023-05-01T01:52:17.793Z,3.33
2023-05-01T01:54:52.879Z,3.36
2023-05-01T01:57:22.060Z,3.34
2023-05-01T01:59:51.226Z,3.33
2023-05-01T02:02:29.486Z,3.27
2023-05-01T02:04:57.442Z,3.25
2023-05-01T02:07:25.487Z,3.37
2023-05-01T02:09:55.095Z,3.36
2023-05-01T02:12:26.901Z,3.18
2023-05-01T02:14:54.071Z,3.18
2023-05-01T02:17:51.366Z,3.13
2023-05-01T02:59:05.765Z,2.79
2023-05-01T03:01:32.464Z,2.75
2023-05-01T03:03:59.710Z,2.72
2023-05-01T03:06:28.960Z,2.61
2023-05-01T03:08:55.582Z,2.59
2023-05-01T03:11:22.319Z,2.54
2023-05-01T03:13:49.119Z,2.52
2023-05-01T03:16:15.843Z,2.51
2023-05-01T03:18:42.458Z,2.60
2023-05-01T03:21:09.280Z,2.60
2023-05-01T03:23:38.354Z,2.55
2023-05-01T03:26:04.992Z,2.47
2023-05-01T03:28:31.756Z,2.44
2023-05-01T03:30:58.444Z,2.38
2023-05-01T03:33:26.209Z,2.40
2023-05-01T03:36:03.166Z,2.41
2023-05-01T03:38:31.384Z,2.41
2023-05-01T03:41:10.201Z,2.38
2023-05-01T03:43:55.500Z,2.32
2023-05-01T03:46:31.639Z,2.31
2023-05-01T03:48:58.466Z,2.28
2023-05-01T03:51:25.701Z,2.28
2023-05-01T03:53:56.669Z,2.24
2023-05-01T03:56:25.787Z,2.31
2023-05-01T03:58:53.239Z,2.34
2023-05-01T04:01:19.934Z,2.38
2023-05-01T04:03:48.350Z,2.39
2023-05-01T04:06:17.277Z,2.36
2023-05-01T04:08:44.451Z,2.37
2023-05-01T04:11:11.342Z,2.48
2023-05-01T04:13:37.895Z,2.52
2023-05-01T04:16:05.094Z,2.45
2023-05-01T04:18:32.915Z,2.54
2023-05-01T04:20:59.541Z,2.63
2023-05-01T04:23:26.352Z,2.80
2023-05-01T04:25:56.540Z,2.96
2023-05-01T04:28:23.272Z,3.05
2023-05-01T04:30:50.235Z,3.19
2023-05-01T04:33:16.848Z,3.35
2023-05-01T04:35:43.680Z,3.48
2023-05-01T04:38:10.523Z,3.60
2023-05-01T04:40:38.385Z,3.73
2023-05-01T04:43:05.359Z,3.88
2023-05-01T04:45:32.569Z,4.02
2023-05-01T04:47:59.892Z,4.13
2023-05-01T04:50:26.819Z,4.24
2023-05-01T04:52:53.844Z,4.37
2023-05-01T04:55:20.638Z,4.50
2023-05-01T04:58:03.574Z,4.64
2023-05-01T05:00:30.789Z,4.81
2023-05-01T05:02:58.085Z,5.01
2023-05-01T05:05:26.187Z,5.34
2023-05-01T05:07:52.960Z,5.66
2023-05-01T05:10:35.016Z,5.87
2023-05-01T05:13:15.564Z,5.98
2023-05-01T05:15:43.009Z,6.08
2023-05-01T05:18:11.048Z,6.14
2023-05-01T05:20:39.670Z,6.16
2023-05-01T05:23:08.254Z,6.17
2023-05-01T05:25:35.266Z,6.18
2023-05-01T05:28:01.951Z,6.29
2023-05-01T05:30:28.614Z,6.38
2023-05-01T05:32:56.463Z,6.51
2023-05-01T05:35:23.192Z,6.68
2023-05-01T05:37:50.393Z,6.83
2023-05-01T05:40:17.461Z,6.96
2023-05-01T05:42:52.094Z,7.19
2023-05-01T05:45:19.927Z,7.33
2023-05-01T05:47:47.492Z,7.45
2023-05-01T05:50:14.276Z,7.58
2023-05-01T05:52:42.624Z,7.77
2023-05-01T05:55:09.510Z,8.00
2023-05-01T05:57:37.810Z,8.15
2023-05-01T06:00:07.795Z,8.28
2023-05-01T06:02:43.379Z,8.43
2023-05-01T06:05:10.690Z,8.57
2023-05-01T06:07:37.553Z,8.67
2023-05-01T06:10:05.352Z,8.80
2023-05-01T06:12:32.598Z,8.86
2023-05-01T06:15:00.877Z,8.94
2023-05-01T06:17:28.776Z,9.05
2023-05-01T06:19:56.087Z,9.15
2023-05-01T06:22:22.871Z,9.29
2023-05-01T06:25:00.665Z,9.40
2023-05-01T06:27:29.678Z,9.47
2023-05-01T06:29:56.555Z,9.60
2023-05-01T06:32:23.729Z,9.67
2023-05-01T06:34:50.419Z,9.68
2023-05-01T06:37:17.275Z,9.69
2023-05-01T06:39:43.929Z,9.67
2023-05-01T06:42:15.704Z,9.72
2023-05-01T06:44:43.256Z,9.78
2023-05-01T06:47:10.064Z,9.84
2023-05-01T06:49:36.988Z,9.95
2023-05-01T06:52:03.804Z,10.00
2023-05-01T06:54:30.466Z,10.05
2023-05-01T06:56:57.097Z,10.11
2023-05-01T06:59:25.150Z,10.26
2023-05-01T07:01:52.153Z,10.33
2023-05-01T07:04:18.826Z,10.50
2023-05-01T07:06:45.542Z,10.71
2023-05-01T07:09:13.813Z,10.91
2023-05-01T07:11:40.512Z,11.03
2023-05-01T07:14:07.131Z,11.17
2023-05-01T07:16:33.913Z,11.27
2023-05-01T07:19:00.589Z,11.34
2023-05-01T07:21:27.289Z,11.45
2023-05-01T07:23:53.854Z,11.53
2023-05-01T07:26:20.524Z,11.74
2023-05-01T07:28:47.098Z,11.89
2023-05-01T07:31:13.763Z,11.95
2023-05-01T07:33:41.888Z,11.97
2023-05-01T07:36:09.205Z,11.98
2023-05-01T07:38:35.794Z,11.99
2023-05-01T07:41:02.643Z,11.98
2023-05-01T07:43:29.633Z,11.93
2023-05-01T07:46:00.426Z,11.94
2023-05-01T07:48:28.496Z,11.93
2023-05-01T07:50:56.980Z,11.94
2023-05-01T07:53:23.658Z,12.00
2023-05-01T07:55:50.781Z,12.03
2023-05-01T07:58:17.701Z,12.06
2023-05-01T08:00:47.185Z,12.06
2023-05-01T08:03:14.210Z,12.12
2023-05-01T08:05:41.903Z,12.29
2023-05-01T08:08:09.544Z,12.34
2023-05-01T08:10:36.586Z,12.42
2023-05-01T08:13:03.173Z,12.54
2023-05-01T08:15:29.813Z,12.60
2023-05-01T08:17:57.972Z,12.69
2023-05-01T08:20:24.959Z,12.67
2023-05-01T08:22:51.894Z,12.78
2023-05-01T08:25:18.555Z,12.89
2023-05-01T08:27:45.531Z,13.03
2023-05-01T08:30:12.486Z,13.05
2023-05-01T08:32:39.111Z,13.01
2023-05-01T08:35:06.306Z,13.01
2023-05-01T08:37:33.078Z,13.19
2023-05-01T08:39:59.704Z,13.48
2023-05-01T08:42:27.685Z,13.74
2023-05-01T08:44:59.310Z,13.87
2023-05-01T08:47:27.513Z,14.17
2023-05-01T08:49:55.660Z,14.49
2023-05-01T08:52:23.773Z,14.29
2023-05-01T08:54:54.526Z,14.37
2023-05-01T08:57:21.818Z,14.62
2023-05-01T08:59:50.805Z,14.86
2023-05-01T09:02:18.143Z,15.01
2023-05-01T09:04:45.883Z,15.06
2023-05-01T09:07:12.838Z,14.95
2023-05-01T09:09:39.545Z,14.86
2023-05-01T09:12:20.947Z,15.12
2023-05-01T09:14:47.870Z,15.52
2023-05-01T09:17:15.396Z,15.71
2023-05-01T09:19:42.128Z,15.92
2023-05-01T09:22:09.634Z,16.29
2023-05-01T09:24:36.678Z,16.79
2023-05-01T09:27:03.437Z,17.23
2023-05-01T09:29:40.438Z,17.09
2023-05-01T09:32:21.759Z,16.82
2023-05-01T09:34:49.979Z,17.00
2023-05-01T09:37:29.102Z,18.06
2023-05-01T09:40:06.422Z,19.61
2023-05-01T09:42:36.068Z,20.99
2023-05-01T09:45:05.966Z,21.57
2023-05-01T09:47:34.176Z,21.69
2023-05-01T09:50:00.969Z,22.19
2023-05-01T09:52:29.045Z,22.19
2023-05-01T09:55:18.278Z,22.05
2023-05-01T09:57:46.299Z,21.51
2023-05-01T10:00:15.444Z,22.26
2023-05-01T10:02:46.911Z,22.58
2023-05-01T10:05:14.458Z,22.15
2023-05-01T10:07:57.337Z,23.17
2023-05-01T10:10:24.455Z,23.92
2023-05-01T10:12:52.467Z,24.41
2023-05-01T10:15:25.612Z,23.69
2023-05-01T10:17:56.043Z,22.97
2023-05-01T10:20:22.657Z,23.91
2023-05-01T10:22:50.511Z,24.40
2023-05-01T10:25:18.630Z,24.65
2023-05-01T10:27:45.371Z,24.96
2023-05-01T10:30:12.754Z,23.92
2023-05-01T10:32:42.306Z,23.76
2023-05-01T10:35:15.177Z,23.90
2023-05-01T10:37:51.604Z,24.24
2023-05-01T10:40:57.882Z,24.34
2023-05-01T10:43:29.206Z,24.38
2023-05-01T10:46:08.096Z,24.86
2023-05-01T10:48:37.759Z,24.44
2023-05-01T10:51:10.586Z,24.69
2023-05-01T10:53:40.760Z,25.38
2023-05-01T10:56:25.828Z,25.86
2023-05-01T10:58:52.422Z,25.27
2023-05-01T11:01:41.321Z,24.51
2023-05-01T11:04:28.006Z,24.25
2023-05-01T11:07:10.910Z,22.89
2023-05-01T11:09:43.098Z,22.95
2023-05-01T11:12:11.881Z,23.05
2023-05-01T11:14:54.130Z,22.96
2023-05-01T11:17:39.543Z,22.92
2023-05-01T11:20:10.097Z,23.36
2023-05-01T11:22:37.184Z,23.50
2023-05-01T11:25:17.930Z,23.55
2023-05-01T11:27:53.042Z,23.01
2023-05-01T11:30:20.463Z,22.53
2023-05-01T11:32:48.935Z,22.51
2023-05-01T11:35:27.315Z,23.39
2023-05-01T11:37:57.335Z,24.36
2023-05-01T11:40:29.280Z,24.64
2023-05-01T11:43:06.067Z,25.64
2023-05-01T11:45:34.132Z,26.01
2023-05-01T11:48:04.661Z,26.89
2023-05-01T11:50:36.293Z,26.90
2023-05-01T11:53:04.946Z,27.40
2023-05-01T11:55:33.192Z,27.38
2023-05-01T11:58:00.454Z,27.87
2023-05-01T12:00:33.766Z,27.42
2023-05-01T12:03:02.779Z,26.90
2023-05-01T12:05:31.460Z,27.39
2023-05-01T12:08:18.675Z,27.27
2023-05-01T12:10:49.341Z,26.07
2023-05-01T12:13:17.106Z,24.93
2023-05-01T12:15:46.774Z,24.61
2023-05-01T12:18:15.476Z,25.63
2023-05-01T12:20:48.652Z,26.91
2023-05-01T12:23:16.449Z,27.76
2023-05-01T12:25:44.864Z,28.39
2023-05-01T12:28:20.320Z,28.11
2023-05-01T12:30:49.144Z,28.43
2023-05-01T12:33:15.809Z,28.45
2023-05-01T12:35:47.112Z,28.17
2023-05-01T12:38:19.863Z,28.17
2023-05-01T12:40:55.671Z,28.64
2023-05-01T12:43:33.543Z,29.16
2023-05-01T12:46:02.052Z,28.32
2023-05-01T12:48:30.053Z,27.86
2023-05-01T12:50:57.323Z,28.05
2023-05-01T12:53:26.362Z,28.50
2023-05-01T12:55:57.830Z,28.22
2023-05-01T12:58:35.324Z,28.60
2023-05-01T13:01:02.899Z,28.75
2023-05-01T13:03:30.506Z,28.44
2023-05-01T13:06:02.407Z,28.23
2023-05-01T13:08:33.672Z,28.01
2023-05-01T13:11:08.949Z,28.80
2023-05-01T13:13:35.955Z,28.54
2023-05-01T13:16:13.829Z,27.95
2023-05-01T13:18:46.852Z,27.59
2023-05-01T13:21:16.364Z,27.32
2023-05-01T13:23:53.169Z,27.07
2023-05-01T13:26:26.954Z,26.85
2023-05-01T13:28:53.671Z,27.51
2023-05-01T13:31:20.288Z,27.69
2023-05-01T13:33:52.062Z,27.90
2023-05-01T13:36:26.329Z,28.30
2023-05-01T13:38:56.435Z,27.82
2023-05-01T13:41:28.123Z,27.38
2023-05-01T13:43:56.511Z,27.70
2023-05-01T13:46:24.989Z,27.94
2023-05-01T13:48:52.142Z,27.71
2023-05-01T13:51:24.320Z,27.87
2023-05-01T13:53:53.751Z,28.10
2023-05-01T13:56:21.769Z,28.06
2023-05-01T13:58:50.840Z,26.96
2023-05-01T14:01:21.239Z,25.86
2023-05-01T14:03:49.028Z,25.45
2023-05-01T14:06:19.717Z,25.46
2023-05-01T14:08:48.809Z,25.72
2023-05-01T14:11:15.802Z,25.70
2023-05-01T14:13:46.647Z,25.74
2023-05-01T14:16:33.446Z,25.39
2023-05-01T14:19:00.130Z,25.38
2023-05-01T14:21:28.299Z,25.13
2023-05-01T14:23:57.026Z,24.76
2023-05-01T14:26:24.663Z,24.62
2023-05-01T14:28:51.347Z,24.63
2023-05-01T14:31:27.417Z,24.66
2023-05-01T14:33:59.793Z,24.58
2023-05-01T14:36:33.996Z,24.03
2023-05-01T14:39:02.517Z,23.53
2023-05-01T14:41:29.761Z,23.09
2023-05-01T14:43:56.647Z,22.80
2023-05-01T14:46:32.639Z,22.76
2023-05-01T14:49:00.990Z,22.60
2023-05-01T14:51:28.608Z,22.16
2023-05-01T14:53:55.500Z,21.67
2023-05-01T14:56:22.886Z,21.32
2023-05-01T14:58:49.788Z,21.30
2023-05-01T15:01:16.982Z,21.24
2023-05-01T15:03:43.850Z,21.15
2023-05-01T15:06:11.279Z,21.07
2023-05-01T15:08:38.278Z,20.70
2023-05-01T15:11:05.216Z,20.54
2023-05-01T15:13:31.805Z,20.42
2023-05-01T15:15:58.665Z,20.45
2023-05-01T15:18:25.360Z,20.33
2023-05-01T15:20:52.116Z,20.20
2023-05-01T15:23:18.849Z,20.08
2023-05-01T15:25:47.533Z,20.05
2023-05-01T15:28:14.216Z,19.89
2023-05-01T15:30:44.809Z,19.75
2023-05-01T15:33:11.419Z,19.62
2023-05-01T15:35:38.561Z,19.50
2023-05-01T15:38:05.543Z,19.61
2023-05-01T15:40:33.446Z,19.65
2023-05-01T15:43:01.249Z,19.62
2023-05-01T15:45:27.968Z,19.55
2023-05-01T15:47:54.665Z,19.39
2023-05-01T15:50:22.159Z,19.34
2023-05-01T15:52:48.884Z,19.26
2023-05-01T15:55:15.935Z,19.21
2023-05-01T15:57:45.929Z,19.04
2023-05-01T16:00:14.471Z,19.01
2023-05-01T16:02:42.623Z,19.05
2023-05-01T16:05:09.594Z,19.09
2023-05-01T16:07:36.464Z,19.08
2023-05-01T16:10:04.546Z,19.11
2023-05-01T16:12:31.468Z,19.08
2023-05-01T16:15:00.913Z,19.06
2023-05-01T16:17:27.656Z,18.88
2023-05-01T16:19:55.136Z,18.79
2023-05-01T16:22:21.838Z,18.77
2023-05-01T16:24:49.133Z,18.68
2023-05-01T16:27:18.117Z,18.57
2023-05-01T16:29:45.082Z,18.55
2023-05-01T16:32:13.581Z,18.52
2023-05-01T16:34:40.504Z,18.39
2023-05-01T16:37:07.493Z,18.25
2023-05-01T16:39:38.418Z,18.26
2023-05-01T16:42:05.199Z,18.21
2023-05-01T16:44:35.344Z,18.17
2023-05-01T16:47:03.491Z,18.12
2023-05-01T16:49:30.168Z,18.07
2023-05-01T16:51:58.466Z,17.96
2023-05-01T16:54:31.917Z,17.96
2023-05-01T16:56:59.147Z,17.91
2023-05-01T16:59:25.939Z,17.85
2023-05-01T17:01:52.907Z,17.78
2023-05-01T17:04:19.846Z,17.76
2023-05-01T17:06:46.519Z,17.70
2023-05-01T17:09:13.268Z,17.66
2023-05-01T17:11:56.409Z,17.68
2023-05-01T17:14:23.235Z,17.62
2023-05-01T17:16:50.475Z,17.55
2023-05-01T17:19:17.328Z,17.55
2023-05-01T17:21:43.992Z,17.50
2023-05-01T17:24:10.992Z,17.43
2023-05-01T17:26:37.647Z,17.34
2023-05-01T17:29:04.245Z,17.28
2023-05-01T17:31:30.880Z,17.24
2023-05-01T17:33:57.473Z,17.16
2023-05-01T17:36:24.032Z,17.11
2023-05-01T17:38:50.898Z,16.96
2023-05-01T17:41:17.525Z,16.87
2023-05-01T17:43:45.643Z,16.81
2023-05-01T17:46:14.114Z,16.70
2023-05-01T17:48:44.614Z,16.55
2023-05-01T17:51:14.074Z,16.49
2023-05-01T17:53:41.685Z,16.42
2023-05-01T17:56:09.013Z,16.35
2023-05-01T17:58:36.424Z,16.25
2023-05-01T18:01:04.621Z,16.20
2023-05-01T18:03:35.065Z,16.17
2023-05-01T18:06:02.614Z,16.11
2023-05-01T18:08:29.327Z,15.98
2023-05-01T18:10:56.018Z,15.91
2023-05-01T18:13:28.041Z,15.86
2023-05-01T18:15:55.961Z,15.82
2023-05-01T18:18:29.131Z,15.83
2023-05-01T18:20:57.267Z,15.79
2023-05-01T18:23:25.236Z,15.73
2023-05-01T18:25:52.048Z,15.60
2023-05-01T18:28:19.120Z,15.57
2023-05-01T18:30:46.210Z,15.58
2023-05-01T18:33:13.520Z,15.53
2023-05-01T18:35:42.554Z,15.50
2023-05-01T18:38:10.062Z,15.46
2023-05-01T18:40:37.571Z,15.44
2023-05-01T18:43:04.493Z,15.39
2023-05-01T18:45:31.361Z,15.34
2023-05-01T18:48:01.106Z,15.30
2023-05-01T18:50:28.607Z,15.29
2023-05-01T18:52:55.495Z,15.29
2023-05-01T18:55:22.209Z,15.23
2023-05-01T18:57:49.183Z,15.16
2023-05-01T19:00:18.705Z,15.17
2023-05-01T19:02:51.141Z,15.18
2023-05-01T19:05:18.234Z,15.16
2023-05-01T19:07:45.244Z,15.13
2023-05-01T19:10:12.204Z,15.08
2023-05-01T19:12:39.547Z,15.01
2023-05-01T19:15:06.810Z,14.97
2023-05-01T19:17:33.987Z,14.96
2023-05-01T19:20:01.336Z,14.93
2023-05-01T19:22:28.197Z,14.93
2023-05-01T19:24:54.717Z,14.90
2023-05-01T19:27:21.392Z,14.88
2023-05-01T19:29:48.112Z,14.86
2023-05-01T19:32:14.868Z,14.85
2023-05-01T19:34:41.943Z,14.84
2023-05-01T19:37:08.475Z,14.85
2023-05-01T19:39:35.551Z,14.83
2023-05-01T19:42:03.252Z,14.80
2023-05-01T19:44:30.878Z,14.77
2023-05-01T19:46:57.521Z,14.74
2023-05-01T19:49:24.970Z,14.73
2023-05-01T19:51:53.518Z,14.71
2023-05-01T19:54:22.262Z,14.68
2023-05-01T19:56:51.723Z,14.65
2023-05-01T19:59:19.773Z,14.63
2023-05-01T20:01:46.510Z,14.65
2023-05-01T20:04:13.345Z,14.61
2023-05-01T20:06:40.169Z,14.58
2023-05-01T20:09:07.311Z,14.55
2023-05-01T20:11:34.178Z,14.58
2023-05-01T20:14:02.192Z,14.55
2023-05-01T20:16:30.120Z,14.52
2023-05-01T20:18:56.754Z,14.38
2023-05-01T20:21:23.685Z,14.19
2023-05-01T20:23:51.280Z,14.04
2023-05-01T20:26:19.042Z,14.02
2023-05-01T20:28:46.785Z,13.93
2023-05-01T20:31:13.735Z,13.83
2023-05-01T20:33:40.475Z,13.69
2023-05-01T20:36:07.335Z,13.64
2023-05-01T20:38:40.398Z,13.53
2023-05-01T20:41:07.077Z,13.43
2023-05-01T20:43:33.728Z,13.40
2023-05-01T20:46:00.887Z,13.40
2023-05-01T20:48:27.613Z,13.40
2023-05-01T20:50:54.346Z,13.29
2023-05-01T20:53:21.096Z,13.25
2023-05-01T20:55:47.725Z,13.24
2023-05-01T20:58:14.334Z,13.23
2023-05-01T21:00:40.960Z,13.25
2023-05-01T21:03:09.258Z,12.94
2023-05-01T21:05:36.008Z,12.79
2023-05-01T21:08:03.656Z,12.81
2023-05-01T21:10:30.254Z,12.89
2023-05-01T21:12:57.770Z,12.87
2023-05-01T21:15:24.796Z,12.78
2023-05-01T21:17:51.562Z,12.61
2023-05-01T21:20:30.256Z,12.65
2023-05-01T21:22:56.895Z,12.63
2023-05-01T21:25:26.926Z,12.60
2023-05-01T21:27:54.146Z,12.59
2023-05-01T21:30:30.276Z,12.58
2023-05-01T21:32:58.297Z,12.58
2023-05-01T21:35:26.070Z,12.57
2023-05-01T21:37:52.710Z,12.59
2023-05-01T21:40:19.501Z,12.60
2023-05-01T21:42:46.619Z,12.65
2023-05-01T21:45:14.475Z,12.69
2023-05-01T21:47:43.336Z,12.65
2023-05-01T21:50:13.135Z,12.66
2023-05-01T21:52:40.966Z,12.64
2023-05-01T21:55:09.729Z,12.60
2023-05-01T21:57:37.673Z,12.65
2023-05-01T22:00:09.034Z,12.73
2023-05-01T22:02:46.561Z,12.77
2023-05-01T22:05:15.061Z,12.67
2023-05-01T22:07:42.856Z,12.64
2023-05-01T22:10:11.878Z,12.63
2023-05-01T22:12:39.783Z,12.54
2023-05-01T22:15:13.658Z,12.41
2023-05-01T22:17:40.978Z,12.42
2023-05-01T22:20:11.121Z,12.36
2023-05-01T22:22:39.226Z,12.42
2023-05-01T22:25:06.733Z,12.46
2023-05-01T22:27:33.832Z,12.44
2023-05-01T22:30:00.688Z,12.42
2023-05-01T22:32:28.211Z,12.40
2023-05-01T22:34:55.126Z,12.34
2023-05-01T22:37:21.842Z,12.33
2023-05-01T22:39:48.496Z,12.30
2023-05-01T22:42:15.080Z,12.28
2023-05-01T22:44:41.840Z,12.29
2023-05-01T22:47:08.461Z,12.26
2023-05-01T22:49:35.441Z,12.28
2023-05-01T22:52:02.714Z,12.27
2023-05-01T22:54:29.301Z,12.20
2023-05-01T22:56:56.265Z,12.11
2023-05-01T22:59:22.890Z,12.06
2023-05-01T23:01:49.541Z,12.05
2023-05-01T23:04:16.482Z,12.07
2023-05-01T23:06:44.225Z,12.09
2023-05-01T23:09:11.690Z,12.07
2023-05-01T23:11:40.277Z,12.04
2023-05-01T23:14:07.356Z,12.06
2023-05-01T23:16:44.502Z,12.08
2023-05-01T23:19:22.785Z,12.02
2023-05-01T23:21:50.955Z,12.02
2023-05-01T23:24:21.131Z,11.95
2023-05-01T23:26:47.760Z,11.91
2023-05-01T23:29:16.411Z,11.88
2023-05-01T23:31:46.651Z,11.89
2023-05-01T23:34:17.451Z,11.83
2023-05-01T23:36:45.066Z,11.82
2023-05-01T23:39:11.881Z,11.90
2023-05-01T23:41:39.026Z,11.94
2023-05-01T23:44:05.944Z,11.95
2023-05-01T23:46:32.569Z,11.97
2023-05-01T23:48:59.574Z,11.98
2023-05-01T23:51:27.658Z,11.97
2023-05-01T23:53:54.372Z,11.88
2023-05-01T23:56:21.060Z,11.89
2023-05-01T23:58:47.733Z,11.87
